sensor_id;sensor_type;location;lat;lon;timestamp;P1;durP1;ratioP1;P2;durP2;ratioP2
11572;SDS011;5842;52.426;4.886;2023-05-10T00:00:50;39.10;;;27.43;;
11572;SDS011;5842;52.426;4.886;2023-05-10T00:03:17;38.33;;;26.83;;
11572;SDS011;5842;52.426;4.886;2023-05-10T00:05:45;33.03;;;25.27;;
11572;SDS011;5842;52.426;4.886;2023-05-10T00:08:14;39.63;;;26.20;;
11572;SDS011;5842;52.426;4.886;2023-05-10T00:10:41;39.53;;;27.23;;
11572;SDS011;5842;52.426;4.886;2023-05-10T00:13:09;40.00;;;28.20;;
11572;SDS011;5842;52.426;4.886;2023-05-10T00:15:36;39.33;;;26.20;;
11572;SDS011;5842;52.426;4.886;2023-05-10T00:18:03;39.20;;;26.00;;
11572;SDS011;5842;52.426;4.886;2023-05-10T00:20:31;40.23;;;26.30;;
11572;SDS011;5842;52.426;4.886;2023-05-10T00:22:58;40.73;;;26.87;;
11572;SDS011;5842;52.426;4.886;2023-05-10T00:25:27;36.00;;;24.73;;
11572;SDS011;5842;52.426;4.886;2023-05-10T00:27:55;38.13;;;25.57;;
11572;SDS011;5842;52.426;4.886;2023-05-10T00:30:22;41.93;;;27.13;;
11572;SDS011;5842;52.426;4.886;2023-05-10T00:32:50;38.93;;;26.27;;
11572;SDS011;5842;52.426;4.886;2023-05-10T00:35:17;39.10;;;26.03;;
11572;SDS011;5842;52.426;4.886;2023-05-10T00:37:44;40.20;;;27.53;;
11572;SDS011;5842;52.426;4.886;2023-05-10T00:40:12;40.93;;;27.23;;
11572;SDS011;5842;52.426;4.886;2023-05-10T00:42:41;42.37;;;27.07;;
11572;SDS011;5842;52.426;4.886;2023-05-10T00:45:09;44.67;;;28.67;;
11572;SDS011;5842;52.426;4.886;2023-05-10T00:47:36;44.87;;;28.33;;
11572;SDS011;5842;52.426;4.886;2023-05-10T00:50:05;47.63;;;28.43;;
11572;SDS011;5842;52.426;4.886;2023-05-10T00:52:32;44.33;;;28.87;;
11572;SDS011;5842;52.426;4.886;2023-05-10T00:55:00;43.40;;;28.00;;
11572;SDS011;5842;52.426;4.886;2023-05-10T00:57:28;43.80;;;28.13;;
11572;SDS011;5842;52.426;4.886;2023-05-10T00:59:57;39.27;;;27.17;;
11572;SDS011;5842;52.426;4.886;2023-05-10T01:02:24;49.70;;;31.60;;
11572;SDS011;5842;52.426;4.886;2023-05-10T01:04:52;44.57;;;27.73;;
11572;SDS011;5842;52.426;4.886;2023-05-10T01:07:19;44.43;;;28.73;;
11572;SDS011;5842;52.426;4.886;2023-05-10T01:09:47;44.93;;;28.73;;
11572;SDS011;5842;52.426;4.886;2023-05-10T01:12:14;41.67;;;27.57;;
11572;SDS011;5842;52.426;4.886;2023-05-10T01:14:42;42.97;;;27.90;;
11572;SDS011;5842;52.426;4.886;2023-05-10T01:17:11;51.40;;;31.40;;
11572;SDS011;5842;52.426;4.886;2023-05-10T01:19:40;47.53;;;31.33;;
11572;SDS011;5842;52.426;4.886;2023-05-10T01:22:11;44.93;;;29.97;;
11572;SDS011;5842;52.426;4.886;2023-05-10T01:25:01;47.53;;;31.57;;
11572;SDS011;5842;52.426;4.886;2023-05-10T01:27:47;53.83;;;32.80;;
11572;SDS011;5842;52.426;4.886;2023-05-10T01:33:17;58.53;;;34.33;;
11572;SDS011;5842;52.426;4.886;2023-05-10T01:35:47;56.17;;;35.40;;
11572;SDS011;5842;52.426;4.886;2023-05-10T01:38:17;57.03;;;34.33;;
11572;SDS011;5842;52.426;4.886;2023-05-10T01:40:48;57.23;;;35.87;;
11572;SDS011;5842;52.426;4.886;2023-05-10T01:43:19;57.43;;;35.13;;
11572;SDS011;5842;52.426;4.886;2023-05-10T01:45:50;55.97;;;34.43;;
11572;SDS011;5842;52.426;4.886;2023-05-10T01:48:23;55.03;;;35.37;;
11572;SDS011;5842;52.426;4.886;2023-05-10T01:50:53;55.27;;;34.27;;
11572;SDS011;5842;52.426;4.886;2023-05-10T01:53:21;54.13;;;32.03;;
11572;SDS011;5842;52.426;4.886;2023-05-10T01:55:51;46.47;;;30.03;;
11572;SDS011;5842;52.426;4.886;2023-05-10T01:58:20;46.17;;;29.73;;
11572;SDS011;5842;52.426;4.886;2023-05-10T02:00:49;48.03;;;30.13;;
11572;SDS011;5842;52.426;4.886;2023-05-10T02:03:16;43.60;;;27.10;;
11572;SDS011;5842;52.426;4.886;2023-05-10T02:05:47;51.60;;;29.57;;
11572;SDS011;5842;52.426;4.886;2023-05-10T02:08:15;47.83;;;29.30;;
11572;SDS011;5842;52.426;4.886;2023-05-10T02:10:43;46.27;;;29.23;;
11572;SDS011;5842;52.426;4.886;2023-05-10T02:13:12;47.47;;;28.57;;
11572;SDS011;5842;52.426;4.886;2023-05-10T02:15:40;45.43;;;27.20;;
11572;SDS011;5842;52.426;4.886;2023-05-10T02:18:08;44.50;;;27.57;;
11572;SDS011;5842;52.426;4.886;2023-05-10T02:20:36;44.27;;;27.27;;
11572;SDS011;5842;52.426;4.886;2023-05-10T02:23:06;44.93;;;27.53;;
11572;SDS011;5842;52.426;4.886;2023-05-10T02:25:34;46.17;;;28.50;;
11572;SDS011;5842;52.426;4.886;2023-05-10T02:28:04;44.70;;;26.90;;
11572;SDS011;5842;52.426;4.886;2023-05-10T02:30:32;42.10;;;26.50;;
11572;SDS011;5842;52.426;4.886;2023-05-10T02:32:59;41.83;;;25.43;;
11572;SDS011;5842;52.426;4.886;2023-05-10T02:35:28;39.47;;;24.50;;
11572;SDS011;5842;52.426;4.886;2023-05-10T02:37:56;34.37;;;22.53;;
11572;SDS011;5842;52.426;4.886;2023-05-10T02:40:25;36.33;;;23.10;;
11572;SDS011;5842;52.426;4.886;2023-05-10T02:42:54;37.63;;;22.87;;
11572;SDS011;5842;52.426;4.886;2023-05-10T02:45:23;40.17;;;22.90;;
11572;SDS011;5842;52.426;4.886;2023-05-10T02:47:51;39.17;;;24.77;;
11572;SDS011;5842;52.426;4.886;2023-05-10T02:50:19;40.20;;;24.13;;
11572;SDS011;5842;52.426;4.886;2023-05-10T02:52:47;45.23;;;24.17;;
11572;SDS011;5842;52.426;4.886;2023-05-10T02:55:16;39.70;;;23.03;;
11572;SDS011;5842;52.426;4.886;2023-05-10T02:57:48;43.07;;;23.50;;
11572;SDS011;5842;52.426;4.886;2023-05-10T03:00:17;42.37;;;23.03;;
11572;SDS011;5842;52.426;4.886;2023-05-10T03:02:47;47.43;;;25.10;;
11572;SDS011;5842;52.426;4.886;2023-05-10T03:05:14;47.13;;;24.87;;
11572;SDS011;5842;52.426;4.886;2023-05-10T03:07:42;50.57;;;26.00;;
11572;SDS011;5842;52.426;4.886;2023-05-10T03:10:09;50.73;;;25.97;;
11572;SDS011;5842;52.426;4.886;2023-05-10T03:12:41;53.23;;;26.03;;
11572;SDS011;5842;52.426;4.886;2023-05-10T03:15:17;56.87;;;25.93;;
11572;SDS011;5842;52.426;4.886;2023-05-10T03:17:47;47.13;;;24.63;;
11572;SDS011;5842;52.426;4.886;2023-05-10T03:20:16;44.20;;;23.10;;
11572;SDS011;5842;52.426;4.886;2023-05-10T03:22:50;37.97;;;20.73;;
11572;SDS011;5842;52.426;4.886;2023-05-10T03:25:19;39.30;;;19.10;;
11572;SDS011;5842;52.426;4.886;2023-05-10T03:27:48;20.97;;;12.80;;
11572;SDS011;5842;52.426;4.886;2023-05-10T03:30:17;22.27;;;12.63;;
11572;SDS011;5842;52.426;4.886;2023-05-10T03:32:45;19.40;;;12.87;;
11572;SDS011;5842;52.426;4.886;2023-05-10T03:35:13;19.87;;;12.57;;
11572;SDS011;5842;52.426;4.886;2023-05-10T03:37:40;19.43;;;13.00;;
11572;SDS011;5842;52.426;4.886;2023-05-10T03:40:08;22.63;;;13.37;;
11572;SDS011;5842;52.426;4.886;2023-05-10T03:42:35;24.97;;;14.43;;
11572;SDS011;5842;52.426;4.886;2023-05-10T03:45:03;25.63;;;15.00;;
11572;SDS011;5842;52.426;4.886;2023-05-10T03:47:34;31.00;;;17.40;;
11572;SDS011;5842;52.426;4.886;2023-05-10T03:50:01;36.67;;;18.30;;
11572;SDS011;5842;52.426;4.886;2023-05-10T03:52:29;30.47;;;17.83;;
11572;SDS011;5842;52.426;4.886;2023-05-10T03:54:56;30.83;;;18.10;;
11572;SDS011;5842;52.426;4.886;2023-05-10T03:57:24;31.83;;;18.90;;
11572;SDS011;5842;52.426;4.886;2023-05-10T03:59:51;31.03;;;16.67;;
11572;SDS011;5842;52.426;4.886;2023-05-10T04:02:19;28.87;;;16.03;;
11572;SDS011;5842;52.426;4.886;2023-05-10T04:04:48;30.97;;;16.33;;
11572;SDS011;5842;52.426;4.886;2023-05-10T04:07:15;26.77;;;15.20;;
11572;SDS011;5842;52.426;4.886;2023-05-10T04:09:43;30.90;;;15.73;;
11572;SDS011;5842;52.426;4.886;2023-05-10T04:12:10;28.13;;;16.37;;
11572;SDS011;5842;52.426;4.886;2023-05-10T04:14:38;27.93;;;15.67;;
11572;SDS011;5842;52.426;4.886;2023-05-10T04:17:05;23.43;;;15.17;;
11572;SDS011;5842;52.426;4.886;2023-05-10T04:19:33;23.90;;;14.57;;
11572;SDS011;5842;52.426;4.886;2023-05-10T04:22:02;21.57;;;13.10;;
11572;SDS011;5842;52.426;4.886;2023-05-10T04:24:29;23.47;;;13.73;;
11572;SDS011;5842;52.426;4.886;2023-05-10T04:26:57;20.40;;;12.70;;
11572;SDS011;5842;52.426;4.886;2023-05-10T04:29:24;19.13;;;12.13;;
11572;SDS011;5842;52.426;4.886;2023-05-10T04:31:52;21.03;;;12.87;;
11572;SDS011;5842;52.426;4.886;2023-05-10T04:34:20;23.00;;;13.33;;
11572;SDS011;5842;52.426;4.886;2023-05-10T04:36:48;24.83;;;14.77;;
11572;SDS011;5842;52.426;4.886;2023-05-10T04:39:17;26.20;;;14.80;;
11572;SDS011;5842;52.426;4.886;2023-05-10T04:41:44;24.30;;;15.70;;
11572;SDS011;5842;52.426;4.886;2023-05-10T04:44:12;29.50;;;16.23;;
11572;SDS011;5842;52.426;4.886;2023-05-10T04:46:39;36.07;;;18.33;;
11572;SDS011;5842;52.426;4.886;2023-05-10T04:49:06;33.47;;;18.47;;
11572;SDS011;5842;52.426;4.886;2023-05-10T04:51:34;38.43;;;20.10;;
11572;SDS011;5842;52.426;4.886;2023-05-10T04:54:01;42.77;;;23.33;;
11572;SDS011;5842;52.426;4.886;2023-05-10T04:56:30;41.30;;;22.10;;
11572;SDS011;5842;52.426;4.886;2023-05-10T04:58:57;39.50;;;22.80;;
11572;SDS011;5842;52.426;4.886;2023-05-10T05:01:25;43.07;;;22.93;;
11572;SDS011;5842;52.426;4.886;2023-05-10T05:03:52;39.40;;;21.47;;
11572;SDS011;5842;52.426;4.886;2023-05-10T05:06:20;43.03;;;23.13;;
11572;SDS011;5842;52.426;4.886;2023-05-10T05:08:47;42.10;;;23.40;;
11572;SDS011;5842;52.426;4.886;2023-05-10T05:11:15;43.30;;;22.67;;
11572;SDS011;5842;52.426;4.886;2023-05-10T05:13:44;42.53;;;22.37;;
11572;SDS011;5842;52.426;4.886;2023-05-10T05:16:14;41.50;;;22.43;;
11572;SDS011;5842;52.426;4.886;2023-05-10T05:18:41;43.03;;;22.67;;
11572;SDS011;5842;52.426;4.886;2023-05-10T05:21:15;36.10;;;20.23;;
11572;SDS011;5842;52.426;4.886;2023-05-10T05:23:43;35.73;;;20.57;;
11572;SDS011;5842;52.426;4.886;2023-05-10T05:26:10;34.40;;;18.93;;
11572;SDS011;5842;52.426;4.886;2023-05-10T05:28:38;32.93;;;19.13;;
11572;SDS011;5842;52.426;4.886;2023-05-10T05:31:07;29.23;;;18.50;;
11572;SDS011;5842;52.426;4.886;2023-05-10T05:33:35;31.40;;;18.67;;
11572;SDS011;5842;52.426;4.886;2023-05-10T05:36:02;30.43;;;18.63;;
11572;SDS011;5842;52.426;4.886;2023-05-10T05:38:30;31.23;;;17.60;;
11572;SDS011;5842;52.426;4.886;2023-05-10T05:40:58;28.97;;;17.80;;
11572;SDS011;5842;52.426;4.886;2023-05-10T05:43:25;31.97;;;18.77;;
11572;SDS011;5842;52.426;4.886;2023-05-10T05:45:52;29.43;;;17.10;;
11572;SDS011;5842;52.426;4.886;2023-05-10T05:48:21;31.97;;;17.67;;
11572;SDS011;5842;52.426;4.886;2023-05-10T05:50:49;27.47;;;16.83;;
11572;SDS011;5842;52.426;4.886;2023-05-10T05:53:16;29.60;;;17.00;;
11572;SDS011;5842;52.426;4.886;2023-05-10T05:55:50;28.77;;;16.57;;
11572;SDS011;5842;52.426;4.886;2023-05-10T05:58:19;30.67;;;16.80;;
11572;SDS011;5842;52.426;4.886;2023-05-10T06:00:46;29.00;;;16.70;;
11572;SDS011;5842;52.426;4.886;2023-05-10T06:03:13;26.90;;;15.97;;
11572;SDS011;5842;52.426;4.886;2023-05-10T06:05:43;25.33;;;15.87;;
11572;SDS011;5842;52.426;4.886;2023-05-10T06:08:10;25.27;;;15.33;;
11572;SDS011;5842;52.426;4.886;2023-05-10T06:10:37;25.47;;;16.23;;
11572;SDS011;5842;52.426;4.886;2023-05-10T06:13:05;27.13;;;16.50;;
11572;SDS011;5842;52.426;4.886;2023-05-10T06:15:32;23.03;;;15.40;;
11572;SDS011;5842;52.426;4.886;2023-05-10T06:17:59;24.20;;;15.07;;
11572;SDS011;5842;52.426;4.886;2023-05-10T06:20:27;27.17;;;15.57;;
11572;SDS011;5842;52.426;4.886;2023-05-10T06:22:58;24.77;;;15.07;;
11572;SDS011;5842;52.426;4.886;2023-05-10T06:25:25;24.70;;;14.87;;
11572;SDS011;5842;52.426;4.886;2023-05-10T06:27:53;26.27;;;14.13;;
11572;SDS011;5842;52.426;4.886;2023-05-10T06:30:23;22.43;;;14.37;;
11572;SDS011;5842;52.426;4.886;2023-05-10T06:32:53;21.23;;;14.57;;
11572;SDS011;5842;52.426;4.886;2023-05-10T06:35:21;22.60;;;14.60;;
11572;SDS011;5842;52.426;4.886;2023-05-10T06:37:48;20.13;;;14.33;;
11572;SDS011;5842;52.426;4.886;2023-05-10T06:40:18;21.93;;;14.50;;
11572;SDS011;5842;52.426;4.886;2023-05-10T06:42:45;19.77;;;13.33;;
11572;SDS011;5842;52.426;4.886;2023-05-10T06:45:13;21.57;;;13.27;;
11572;SDS011;5842;52.426;4.886;2023-05-10T06:47:41;21.83;;;14.00;;
11572;SDS011;5842;52.426;4.886;2023-05-10T06:50:09;20.97;;;14.23;;
11572;SDS011;5842;52.426;4.886;2023-05-10T06:52:37;19.17;;;12.70;;
11572;SDS011;5842;52.426;4.886;2023-05-10T06:55:05;20.60;;;12.20;;
11572;SDS011;5842;52.426;4.886;2023-05-10T06:57:34;20.23;;;12.70;;
11572;SDS011;5842;52.426;4.886;2023-05-10T07:00:02;20.63;;;12.60;;
11572;SDS011;5842;52.426;4.886;2023-05-10T07:02:30;19.57;;;12.73;;
11572;SDS011;5842;52.426;4.886;2023-05-10T07:04:57;19.43;;;12.50;;
11572;SDS011;5842;52.426;4.886;2023-05-10T07:07:27;17.70;;;12.03;;
11572;SDS011;5842;52.426;4.886;2023-05-10T07:09:55;17.77;;;11.60;;
11572;SDS011;5842;52.426;4.886;2023-05-10T07:12:22;18.87;;;11.90;;
11572;SDS011;5842;52.426;4.886;2023-05-10T07:14:51;20.47;;;13.20;;
11572;SDS011;5842;52.426;4.886;2023-05-10T07:17:19;17.83;;;13.50;;
11572;SDS011;5842;52.426;4.886;2023-05-10T07:19:46;21.13;;;14.27;;
11572;SDS011;5842;52.426;4.886;2023-05-10T07:38:17;24.43;;;16.50;;
11572;SDS011;5842;52.426;4.886;2023-05-10T07:40:45;23.83;;;16.13;;
11572;SDS011;5842;52.426;4.886;2023-05-10T07:43:12;23.03;;;15.93;;
11572;SDS011;5842;52.426;4.886;2023-05-10T07:45:39;23.53;;;16.07;;
11572;SDS011;5842;52.426;4.886;2023-05-10T07:48:07;22.77;;;14.73;;
11572;SDS011;5842;52.426;4.886;2023-05-10T07:50:34;21.93;;;14.83;;
11572;SDS011;5842;52.426;4.886;2023-05-10T07:53:02;20.47;;;14.50;;
11572;SDS011;5842;52.426;4.886;2023-05-10T07:55:31;18.77;;;13.80;;
11572;SDS011;5842;52.426;4.886;2023-05-10T07:58:00;16.30;;;12.83;;
11572;SDS011;5842;52.426;4.886;2023-05-10T08:00:28;17.00;;;12.97;;
11572;SDS011;5842;52.426;4.886;2023-05-10T08:02:55;17.57;;;12.50;;
11572;SDS011;5842;52.426;4.886;2023-05-10T08:05:23;16.77;;;12.03;;
11572;SDS011;5842;52.426;4.886;2023-05-10T08:07:50;16.93;;;12.23;;
11572;SDS011;5842;52.426;4.886;2023-05-10T08:10:17;17.57;;;11.47;;
11572;SDS011;5842;52.426;4.886;2023-05-10T08:12:46;14.83;;;11.03;;
11572;SDS011;5842;52.426;4.886;2023-05-10T08:15:14;13.57;;;10.13;;
11572;SDS011;5842;52.426;4.886;2023-05-10T08:17:41;14.60;;;11.50;;
11572;SDS011;5842;52.426;4.886;2023-05-10T08:20:09;14.70;;;11.73;;
11572;SDS011;5842;52.426;4.886;2023-05-10T08:22:37;15.37;;;12.30;;
11572;SDS011;5842;52.426;4.886;2023-05-10T08:25:05;15.43;;;12.43;;
11572;SDS011;5842;52.426;4.886;2023-05-10T08:27:33;17.40;;;12.97;;
11572;SDS011;5842;52.426;4.886;2023-05-10T08:30:02;15.07;;;11.93;;
11572;SDS011;5842;52.426;4.886;2023-05-10T08:32:29;15.33;;;11.30;;
11572;SDS011;5842;52.426;4.886;2023-05-10T08:34:57;15.27;;;10.97;;
11572;SDS011;5842;52.426;4.886;2023-05-10T08:37:25;12.53;;;9.77;;
11572;SDS011;5842;52.426;4.886;2023-05-10T08:39:52;12.17;;;9.70;;
11572;SDS011;5842;52.426;4.886;2023-05-10T08:42:19;16.37;;;10.70;;
11572;SDS011;5842;52.426;4.886;2023-05-10T08:44:50;9.93;;;8.20;;
11572;SDS011;5842;52.426;4.886;2023-05-10T08:47:19;11.90;;;8.10;;
11572;SDS011;5842;52.426;4.886;2023-05-10T08:49:47;10.70;;;7.93;;
11572;SDS011;5842;52.426;4.886;2023-05-10T08:52:16;12.37;;;8.57;;
11572;SDS011;5842;52.426;4.886;2023-05-10T08:54:44;11.07;;;8.90;;
11572;SDS011;5842;52.426;4.886;2023-05-10T08:57:12;11.37;;;10.17;;
11572;SDS011;5842;52.426;4.886;2023-05-10T08:59:40;13.17;;;10.30;;
11572;SDS011;5842;52.426;4.886;2023-05-10T09:02:07;12.00;;;9.87;;
11572;SDS011;5842;52.426;4.886;2023-05-10T09:04:38;9.83;;;8.50;;
11572;SDS011;5842;52.426;4.886;2023-05-10T09:07:06;11.30;;;9.90;;
11572;SDS011;5842;52.426;4.886;2023-05-10T09:09:33;11.67;;;9.33;;
11572;SDS011;5842;52.426;4.886;2023-05-10T09:12:02;11.33;;;7.80;;
11572;SDS011;5842;52.426;4.886;2023-05-10T09:14:29;11.00;;;6.80;;
11572;SDS011;5842;52.426;4.886;2023-05-10T09:16:58;7.13;;;5.77;;
11572;SDS011;5842;52.426;4.886;2023-05-10T09:19:25;8.17;;;6.67;;
11572;SDS011;5842;52.426;4.886;2023-05-10T09:21:54;8.30;;;6.43;;
11572;SDS011;5842;52.426;4.886;2023-05-10T09:24:24;7.87;;;6.57;;
11572;SDS011;5842;52.426;4.886;2023-05-10T09:26:52;10.97;;;7.67;;
11572;SDS011;5842;52.426;4.886;2023-05-10T09:29:19;9.07;;;7.47;;
11572;SDS011;5842;52.426;4.886;2023-05-10T09:31:48;9.27;;;7.53;;
11572;SDS011;5842;52.426;4.886;2023-05-10T09:34:16;12.07;;;7.30;;
11572;SDS011;5842;52.426;4.886;2023-05-10T09:36:51;7.87;;;7.07;;
11572;SDS011;5842;52.426;4.886;2023-05-10T09:39:20;10.90;;;6.67;;
11572;SDS011;5842;52.426;4.886;2023-05-10T09:41:47;6.80;;;5.83;;
11572;SDS011;5842;52.426;4.886;2023-05-10T09:44:16;9.20;;;6.00;;
11572;SDS011;5842;52.426;4.886;2023-05-10T09:46:48;8.43;;;5.90;;
11572;SDS011;5842;52.426;4.886;2023-05-10T09:49:16;10.27;;;5.80;;
11572;SDS011;5842;52.426;4.886;2023-05-10T09:51:43;7.27;;;5.67;;
11572;SDS011;5842;52.426;4.886;2023-05-10T09:54:11;8.10;;;6.43;;
11572;SDS011;5842;52.426;4.886;2023-05-10T09:56:41;11.67;;;6.60;;
11572;SDS011;5842;52.426;4.886;2023-05-10T09:59:09;8.03;;;6.67;;
11572;SDS011;5842;52.426;4.886;2023-05-10T10:01:37;8.63;;;6.10;;
11572;SDS011;5842;52.426;4.886;2023-05-10T10:04:06;9.10;;;5.20;;
11572;SDS011;5842;52.426;4.886;2023-05-10T10:06:36;7.73;;;5.07;;
11572;SDS011;5842;52.426;4.886;2023-05-10T10:09:04;8.87;;;5.23;;
11572;SDS011;5842;52.426;4.886;2023-05-10T10:11:34;7.07;;;5.20;;
11572;SDS011;5842;52.426;4.886;2023-05-10T10:14:03;6.57;;;5.23;;
11572;SDS011;5842;52.426;4.886;2023-05-10T10:16:31;5.80;;;5.20;;
11572;SDS011;5842;52.426;4.886;2023-05-10T10:18:59;7.43;;;4.87;;
11572;SDS011;5842;52.426;4.886;2023-05-10T10:21:26;7.50;;;5.30;;
11572;SDS011;5842;52.426;4.886;2023-05-10T10:23:53;7.47;;;5.00;;
11572;SDS011;5842;52.426;4.886;2023-05-10T10:26:21;6.40;;;5.57;;
11572;SDS011;5842;52.426;4.886;2023-05-10T10:28:51;6.47;;;4.93;;
11572;SDS011;5842;52.426;4.886;2023-05-10T10:31:23;6.00;;;3.93;;
11572;SDS011;5842;52.426;4.886;2023-05-10T10:33:57;6.87;;;4.77;;
11572;SDS011;5842;52.426;4.886;2023-05-10T10:36:26;8.20;;;5.37;;
11572;SDS011;5842;52.426;4.886;2023-05-10T10:38:56;5.73;;;4.80;;
11572;SDS011;5842;52.426;4.886;2023-05-10T10:41:29;6.87;;;5.50;;
11572;SDS011;5842;52.426;4.886;2023-05-10T10:46:59;8.17;;;5.63;;
11572;SDS011;5842;52.426;4.886;2023-05-10T10:49:27;8.47;;;6.10;;
11572;SDS011;5842;52.426;4.886;2023-05-10T10:52:14;12.20;;;8.00;;
11572;SDS011;5842;52.426;4.886;2023-05-10T10:54:45;11.33;;;7.73;;
11572;SDS011;5842;52.426;4.886;2023-05-10T10:57:14;11.67;;;7.80;;
11572;SDS011;5842;52.426;4.886;2023-05-10T10:59:42;13.07;;;8.20;;
11572;SDS011;5842;52.426;4.886;2023-05-10T11:02:11;13.90;;;9.13;;
11572;SDS011;5842;52.426;4.886;2023-05-10T11:04:58;12.37;;;8.63;;
11572;SDS011;5842;52.426;4.886;2023-05-10T11:07:25;17.07;;;8.93;;
11572;SDS011;5842;52.426;4.886;2023-05-10T11:09:53;15.27;;;10.17;;
11572;SDS011;5842;52.426;4.886;2023-05-10T11:12:21;16.23;;;9.90;;
11572;SDS011;5842;52.426;4.886;2023-05-10T11:14:49;15.87;;;10.77;;
11572;SDS011;5842;52.426;4.886;2023-05-10T11:17:25;15.43;;;9.97;;
11572;SDS011;5842;52.426;4.886;2023-05-10T11:20:06;14.03;;;9.20;;
11572;SDS011;5842;52.426;4.886;2023-05-10T11:22:48;13.33;;;8.93;;
11572;SDS011;5842;52.426;4.886;2023-05-10T11:25:16;13.83;;;9.23;;
11572;SDS011;5842;52.426;4.886;2023-05-10T11:27:44;14.13;;;9.27;;
11572;SDS011;5842;52.426;4.886;2023-05-10T11:30:12;14.23;;;9.03;;
11572;SDS011;5842;52.426;4.886;2023-05-10T11:32:41;14.70;;;9.37;;
11572;SDS011;5842;52.426;4.886;2023-05-10T11:35:09;15.53;;;10.43;;
11572;SDS011;5842;52.426;4.886;2023-05-10T11:37:38;20.13;;;11.20;;
11572;SDS011;5842;52.426;4.886;2023-05-10T11:40:09;18.60;;;11.13;;
11572;SDS011;5842;52.426;4.886;2023-05-10T11:42:36;14.40;;;9.27;;
11572;SDS011;5842;52.426;4.886;2023-05-10T11:45:04;13.63;;;8.87;;
11572;SDS011;5842;52.426;4.886;2023-05-10T11:47:32;13.20;;;8.03;;
11572;SDS011;5842;52.426;4.886;2023-05-10T11:50:02;11.37;;;7.80;;
11572;SDS011;5842;52.426;4.886;2023-05-10T11:52:30;13.07;;;8.93;;
11572;SDS011;5842;52.426;4.886;2023-05-10T11:55:03;12.67;;;8.63;;
11572;SDS011;5842;52.426;4.886;2023-05-10T11:57:30;9.93;;;7.20;;
11572;SDS011;5842;52.426;4.886;2023-05-10T11:59:57;12.53;;;8.13;;
11572;SDS011;5842;52.426;4.886;2023-05-10T12:02:25;12.53;;;8.07;;
11572;SDS011;5842;52.426;4.886;2023-05-10T12:04:52;9.93;;;7.93;;
11572;SDS011;5842;52.426;4.886;2023-05-10T12:07:21;11.90;;;7.97;;
11572;SDS011;5842;52.426;4.886;2023-05-10T12:10:07;7.80;;;6.53;;
11572;SDS011;5842;52.426;4.886;2023-05-10T12:12:36;8.27;;;6.23;;
11572;SDS011;5842;52.426;4.886;2023-05-10T12:15:05;9.13;;;6.53;;
11572;SDS011;5842;52.426;4.886;2023-05-10T12:17:32;8.13;;;6.10;;
11572;SDS011;5842;52.426;4.886;2023-05-10T12:20:12;9.40;;;6.60;;
11572;SDS011;5842;52.426;4.886;2023-05-10T12:22:42;9.50;;;7.13;;
11572;SDS011;5842;52.426;4.886;2023-05-10T12:25:10;9.40;;;6.93;;
11572;SDS011;5842;52.426;4.886;2023-05-10T12:27:38;10.47;;;7.50;;
11572;SDS011;5842;52.426;4.886;2023-05-10T12:30:05;9.80;;;7.23;;
11572;SDS011;5842;52.426;4.886;2023-05-10T12:32:39;8.07;;;5.97;;
11572;SDS011;5842;52.426;4.886;2023-05-10T12:35:07;8.73;;;6.13;;
11572;SDS011;5842;52.426;4.886;2023-05-10T12:37:36;7.50;;;5.57;;
11572;SDS011;5842;52.426;4.886;2023-05-10T12:40:07;9.53;;;6.07;;
11572;SDS011;5842;52.426;4.886;2023-05-10T12:42:35;7.10;;;5.27;;
11572;SDS011;5842;52.426;4.886;2023-05-10T12:45:03;6.63;;;5.77;;
11572;SDS011;5842;52.426;4.886;2023-05-10T12:47:31;10.20;;;5.50;;
11572;SDS011;5842;52.426;4.886;2023-05-10T12:49:59;6.40;;;4.90;;
11572;SDS011;5842;52.426;4.886;2023-05-10T12:52:26;5.23;;;4.30;;
11572;SDS011;5842;52.426;4.886;2023-05-10T12:54:54;6.13;;;4.03;;
11572;SDS011;5842;52.426;4.886;2023-05-10T12:57:23;6.90;;;4.37;;
11572;SDS011;5842;52.426;4.886;2023-05-10T12:59:50;4.90;;;4.40;;
11572;SDS011;5842;52.426;4.886;2023-05-10T13:02:18;5.30;;;4.47;;
11572;SDS011;5842;52.426;4.886;2023-05-10T13:04:46;6.37;;;4.33;;
11572;SDS011;5842;52.426;4.886;2023-05-10T13:07:13;7.37;;;5.40;;
11572;SDS011;5842;52.426;4.886;2023-05-10T13:09:41;6.13;;;5.03;;
11572;SDS011;5842;52.426;4.886;2023-05-10T13:12:08;7.90;;;6.57;;
11572;SDS011;5842;52.426;4.886;2023-05-10T13:14:37;8.73;;;6.40;;
11572;SDS011;5842;52.426;4.886;2023-05-10T13:17:05;7.83;;;6.37;;
11572;SDS011;5842;52.426;4.886;2023-05-10T13:19:33;7.67;;;6.10;;
11572;SDS011;5842;52.426;4.886;2023-05-10T13:22:00;7.93;;;5.90;;
11572;SDS011;5842;52.426;4.886;2023-05-10T13:24:28;6.97;;;5.50;;
11572;SDS011;5842;52.426;4.886;2023-05-10T13:26:55;10.10;;;6.20;;
11572;SDS011;5842;52.426;4.886;2023-05-10T13:29:23;7.23;;;6.03;;
11572;SDS011;5842;52.426;4.886;2023-05-10T13:31:51;11.90;;;6.97;;
11572;SDS011;5842;52.426;4.886;2023-05-10T13:34:19;12.27;;;6.63;;
11572;SDS011;5842;52.426;4.886;2023-05-10T13:36:47;7.93;;;6.07;;
11572;SDS011;5842;52.426;4.886;2023-05-10T13:39:14;9.67;;;6.60;;
11572;SDS011;5842;52.426;4.886;2023-05-10T13:41:42;10.47;;;6.73;;
11572;SDS011;5842;52.426;4.886;2023-05-10T13:44:11;11.00;;;6.87;;
11572;SDS011;5842;52.426;4.886;2023-05-10T13:46:38;8.07;;;6.90;;
11572;SDS011;5842;52.426;4.886;2023-05-10T13:49:08;10.23;;;7.10;;
11572;SDS011;5842;52.426;4.886;2023-05-10T13:51:35;7.53;;;6.27;;
11572;SDS011;5842;52.426;4.886;2023-05-10T13:54:03;8.77;;;6.13;;
11572;SDS011;5842;52.426;4.886;2023-05-10T13:56:30;8.27;;;6.10;;
11572;SDS011;5842;52.426;4.886;2023-05-10T13:58:58;9.47;;;6.77;;
11572;SDS011;5842;52.426;4.886;2023-05-10T14:01:25;10.40;;;6.10;;
11572;SDS011;5842;52.426;4.886;2023-05-10T14:03:52;9.00;;;6.13;;
11572;SDS011;5842;52.426;4.886;2023-05-10T14:06:21;7.83;;;5.57;;
11572;SDS011;5842;52.426;4.886;2023-05-10T14:08:51;8.70;;;6.07;;
11572;SDS011;5842;52.426;4.886;2023-05-10T14:11:19;9.80;;;7.00;;
11572;SDS011;5842;52.426;4.886;2023-05-10T14:13:46;10.90;;;7.07;;
11572;SDS011;5842;52.426;4.886;2023-05-10T14:16:14;11.47;;;7.37;;
11572;SDS011;5842;52.426;4.886;2023-05-10T14:18:41;10.40;;;7.23;;
11572;SDS011;5842;52.426;4.886;2023-05-10T14:21:08;11.37;;;7.03;;
11572;SDS011;5842;52.426;4.886;2023-05-10T14:23:37;13.43;;;7.27;;
11572;SDS011;5842;52.426;4.886;2023-05-10T14:26:05;9.63;;;6.60;;
11572;SDS011;5842;52.426;4.886;2023-05-10T14:28:32;8.53;;;6.30;;
11572;SDS011;5842;52.426;4.886;2023-05-10T14:31:00;8.70;;;6.07;;
11572;SDS011;5842;52.426;4.886;2023-05-10T14:33:27;8.40;;;5.47;;
11572;SDS011;5842;52.426;4.886;2023-05-10T14:35:55;7.93;;;5.23;;
11572;SDS011;5842;52.426;4.886;2023-05-10T14:38:22;7.80;;;5.40;;
11572;SDS011;5842;52.426;4.886;2023-05-10T14:40:51;6.97;;;5.33;;
11572;SDS011;5842;52.426;4.886;2023-05-10T14:43:19;9.10;;;5.87;;
11572;SDS011;5842;52.426;4.886;2023-05-10T14:45:46;7.77;;;5.90;;
11572;SDS011;5842;52.426;4.886;2023-05-10T14:48:13;8.33;;;5.90;;
11572;SDS011;5842;52.426;4.886;2023-05-10T14:50:42;10.20;;;6.70;;
11572;SDS011;5842;52.426;4.886;2023-05-10T14:53:09;9.63;;;6.97;;
11572;SDS011;5842;52.426;4.886;2023-05-10T14:55:37;10.10;;;7.00;;
11572;SDS011;5842;52.426;4.886;2023-05-10T14:58:06;11.57;;;7.43;;
11572;SDS011;5842;52.426;4.886;2023-05-10T15:00:34;10.60;;;7.40;;
11572;SDS011;5842;52.426;4.886;2023-05-10T15:03:01;10.33;;;7.43;;
11572;SDS011;5842;52.426;4.886;2023-05-10T15:05:28;10.07;;;6.80;;
11572;SDS011;5842;52.426;4.886;2023-05-10T15:07:56;9.20;;;5.70;;
11572;SDS011;5842;52.426;4.886;2023-05-10T15:10:24;9.17;;;6.50;;
11572;SDS011;5842;52.426;4.886;2023-05-10T15:12:51;11.17;;;6.20;;